sensor_id;sensor_type;location;lat;lon;timestamp;pressure;altitude;pressure_sealevel;temperature;humidity
59789;BME280;47353;51.614;5.530;2023-05-24T00:01:04;102374.63;;;7.62;87.93
59789;BME280;47353;51.614;5.530;2023-05-24T00:03:31;102364.88;;;7.59;88.16
59789;BME280;47353;51.614;5.530;2023-05-24T00:05:59;102358.13;;;7.55;88.55
59789;BME280;47353;51.614;5.530;2023-05-24T00:08:25;102358.94;;;7.56;88.40
59789;BME280;47353;51.614;5.530;2023-05-24T00:10:50;102356.63;;;7.53;88.60
59789;BME280;47353;51.614;5.530;2023-05-24T00:13:15;102367.66;;;7.53;88.67
59789;BME280;47353;51.614;5.530;2023-05-24T00:15:41;102351.56;;;7.50;88.99
59789;BME280;47353;51.614;5.530;2023-05-24T00:18:06;102347.78;;;7.51;89.13
59789;BME280;47353;51.614;5.530;2023-05-24T00:20:32;102337.22;;;7.41;89.54
59789;BME280;47353;51.614;5.530;2023-05-24T00:22:57;102331.03;;;7.46;89.36
59789;BME280;47353;51.614;5.530;2023-05-24T00:25:23;102343.59;;;7.42;89.63
59789;BME280;47353;51.614;5.530;2023-05-24T00:27:48;102342.72;;;7.41;89.82
59789;BME280;47353;51.614;5.530;2023-05-24T00:30:13;102346.97;;;7.37;89.84
59789;BME280;47353;51.614;5.530;2023-05-24T00:32:39;102337.47;;;7.33;90.14
59789;BME280;47353;51.614;5.530;2023-05-24T00:35:04;102334.72;;;7.27;90.54
59789;BME280;47353;51.614;5.530;2023-05-24T00:37:30;102338.56;;;7.26;90.63
59789;BME280;47353;51.614;5.530;2023-05-24T00:39:55;102340.69;;;7.24;90.79
59789;BME280;47353;51.614;5.530;2023-05-24T00:42:21;102335.41;;;7.22;90.82
59789;BME280;47353;51.614;5.530;2023-05-24T00:44:46;102332.84;;;7.21;91.24
59789;BME280;47353;51.614;5.530;2023-05-24T00:47:12;102332.06;;;7.14;91.37
59789;BME280;47353;51.614;5.530;2023-05-24T00:49:38;102335.63;;;7.14;91.58
59789;BME280;47353;51.614;5.530;2023-05-24T00:52:04;102340.09;;;7.15;92.10
59789;BME280;47353;51.614;5.530;2023-05-24T00:54:31;102339.25;;;7.15;92.33
59789;BME280;47353;51.614;5.530;2023-05-24T00:56:56;102333.97;;;7.13;92.60
59789;BME280;47353;51.614;5.530;2023-05-24T00:59:22;102327.59;;;7.13;92.91
59789;BME280;47353;51.614;5.530;2023-05-24T01:01:49;102332.50;;;7.11;92.98
59789;BME280;47353;51.614;5.530;2023-05-24T01:04:14;102323.81;;;7.07;92.91
59789;BME280;47353;51.614;5.530;2023-05-24T01:07:08;102311.16;;;7.00;93.49
59789;BME280;47353;51.614;5.530;2023-05-24T01:10:03;102310.72;;;6.96;93.35
59789;BME280;47353;51.614;5.530;2023-05-24T01:12:44;102315.81;;;6.93;93.85
59789;BME280;47353;51.614;5.530;2023-05-24T01:18:00;102319.84;;;6.90;94.55
59789;BME280;47353;51.614;5.530;2023-05-24T01:20:28;102308.00;;;6.90;94.70
59789;BME280;47353;51.614;5.530;2023-05-24T01:28:16;102309.69;;;6.91;95.81
59789;BME280;47353;51.614;5.530;2023-05-24T01:30:42;102307.16;;;6.89;96.11
59789;BME280;47353;51.614;5.530;2023-05-24T01:33:08;102309.06;;;6.89;96.41
59789;BME280;47353;51.614;5.530;2023-05-24T01:35:34;102306.53;;;6.87;96.62
59789;BME280;47353;51.614;5.530;2023-05-24T01:38:05;102313.53;;;6.83;96.76
59789;BME280;47353;51.614;5.530;2023-05-24T01:40:31;102314.81;;;6.80;96.93
59789;BME280;47353;51.614;5.530;2023-05-24T01:43:36;102307.19;;;6.76;96.87
59789;BME280;47353;51.614;5.530;2023-05-24T01:46:15;102306.16;;;6.70;97.19
59789;BME280;47353;51.614;5.530;2023-05-24T01:49:10;102301.09;;;6.67;97.35
59789;BME280;47353;51.614;5.530;2023-05-24T01:51:48;102299.81;;;6.63;97.92
59789;BME280;47353;51.614;5.530;2023-05-24T01:54:19;102298.34;;;6.61;98.26
59789;BME280;47353;51.614;5.530;2023-05-24T01:56:47;102301.53;;;6.58;98.64
59789;BME280;47353;51.614;5.530;2023-05-24T01:59:14;102301.75;;;6.56;99.03
59789;BME280;47353;51.614;5.530;2023-05-24T02:01:40;102302.41;;;6.52;99.65
59789;BME280;47353;51.614;5.530;2023-05-24T02:04:06;102310.66;;;6.52;99.89
59789;BME280;47353;51.614;5.530;2023-05-24T02:06:31;102313.84;;;6.49;100.00
59789;BME280;47353;51.614;5.530;2023-05-24T02:08:56;102314.88;;;6.48;100.00
59789;BME280;47353;51.614;5.530;2023-05-24T02:11:22;102311.72;;;6.44;100.00
59789;BME280;47353;51.614;5.530;2023-05-24T02:13:47;102318.06;;;6.45;100.00
59789;BME280;47353;51.614;5.530;2023-05-24T02:16:12;102313.84;;;6.42;100.00
59789;BME280;47353;51.614;5.530;2023-05-24T02:18:38;102315.94;;;6.40;100.00
59789;BME280;47353;51.614;5.530;2023-05-24T02:21:04;102315.34;;;6.38;100.00
59789;BME280;47353;51.614;5.530;2023-05-24T02:23:29;102318.91;;;6.39;100.00
59789;BME280;47353;51.614;5.530;2023-05-24T02:25:55;102320.41;;;6.35;100.00
59789;BME280;47353;51.614;5.530;2023-05-24T02:28:21;102327.38;;;6.31;100.00
59789;BME280;47353;51.614;5.530;2023-05-24T02:30:46;102323.81;;;6.30;100.00
59789;BME280;47353;51.614;5.530;2023-05-24T02:33:12;102321.47;;;6.27;100.00
59789;BME280;47353;51.614;5.530;2023-05-24T02:35:38;102317.44;;;6.23;100.00
59789;BME280;47353;51.614;5.530;2023-05-24T02:38:05;102322.13;;;6.23;100.00
59789;BME280;47353;51.614;5.530;2023-05-24T02:40:31;102319.38;;;6.23;100.00
59789;BME280;47353;51.614;5.530;2023-05-24T02:42:56;102317.25;;;6.18;100.00
59789;BME280;47353;51.614;5.530;2023-05-24T02:45:22;102319.38;;;6.16;100.00
59789;BME280;47353;51.614;5.530;2023-05-24T02:47:47;102321.47;;;6.14;100.00
59789;BME280;47353;51.614;5.530;2023-05-24T02:50:13;102336.28;;;6.13;100.00
59789;BME280;47353;51.614;5.530;2023-05-24T02:52:38;102325.28;;;6.07;100.00
59789;BME280;47353;51.614;5.530;2023-05-24T02:55:04;102330.16;;;6.05;100.00
59789;BME280;47353;51.614;5.530;2023-05-24T02:57:30;102322.97;;;6.04;100.00
59789;BME280;47353;51.614;5.530;2023-05-24T02:59:58;102324.66;;;5.98;100.00
59789;BME280;47353;51.614;5.530;2023-05-24T03:02:24;102321.28;;;5.96;100.00
59789;BME280;47353;51.614;5.530;2023-05-24T03:04:52;102323.81;;;5.98;100.00
59789;BME280;47353;51.614;5.530;2023-05-24T03:07:18;102327.63;;;5.97;100.00
59789;BME280;47353;51.614;5.530;2023-05-24T03:09:43;102323.16;;;5.96;100.00
59789;BME280;47353;51.614;5.530;2023-05-24T03:12:09;102318.09;;;5.93;100.00
59789;BME280;47353;51.614;5.530;2023-05-24T03:14:34;102315.13;;;5.94;100.00
59789;BME280;47353;51.614;5.530;2023-05-24T03:17:00;102314.28;;;5.94;100.00
59789;BME280;47353;51.614;5.530;2023-05-24T03:19:26;102309.84;;;5.93;100.00
59789;BME280;47353;51.614;5.530;2023-05-24T03:21:51;102308.16;;;5.92;100.00
59789;BME280;47353;51.614;5.530;2023-05-24T03:24:17;102307.09;;;5.93;100.00
59789;BME280;47353;51.614;5.530;2023-05-24T03:26:42;102317.03;;;5.94;100.00
59789;BME280;47353;51.614;5.530;2023-05-24T03:29:07;102313.44;;;5.93;100.00
59789;BME280;47353;51.614;5.530;2023-05-24T03:31:33;102309.44;;;5.96;100.00
59789;BME280;47353;51.614;5.530;2023-05-24T03:33:58;102310.06;;;5.98;100.00
59789;BME280;47353;51.614;5.530;2023-05-24T03:36:24;102315.34;;;5.99;100.00
59789;BME280;47353;51.614;5.530;2023-05-24T03:38:50;102311.97;;;5.97;100.00
59789;BME280;47353;51.614;5.530;2023-05-24T03:41:15;102306.47;;;5.97;100.00
59789;BME280;47353;51.614;5.530;2023-05-24T03:43:41;102307.31;;;5.98;100.00
59789;BME280;47353;51.614;5.530;2023-05-24T03:46:06;102302.69;;;5.98;100.00
59789;BME280;47353;51.614;5.530;2023-05-24T03:48:32;102308.19;;;5.98;100.00
59789;BME280;47353;51.614;5.530;2023-05-24T03:50:57;102302.91;;;5.97;100.00
59789;BME280;47353;51.614;5.530;2023-05-24T03:53:22;102303.72;;;5.97;100.00
59789;BME280;47353;51.614;5.530;2023-05-24T03:55:48;102297.78;;;6.00;100.00
59789;BME280;47353;51.614;5.530;2023-05-24T03:58:13;102301.84;;;6.04;100.00
59789;BME280;47353;51.614;5.530;2023-05-24T04:00:39;102301.84;;;6.04;100.00
59789;BME280;47353;51.614;5.530;2023-05-24T04:03:04;102299.91;;;6.05;100.00
59789;BME280;47353;51.614;5.530;2023-05-24T04:05:33;102309.00;;;6.05;100.00
59789;BME280;47353;51.614;5.530;2023-05-24T04:07:59;102304.16;;;6.07;100.00
59789;BME280;47353;51.614;5.530;2023-05-24T04:10:24;102302.44;;;6.06;100.00
59789;BME280;47353;51.614;5.530;2023-05-24T04:12:50;102300.56;;;6.07;100.00
59789;BME280;47353;51.614;5.530;2023-05-24T04:15:15;102300.97;;;6.04;100.00
59789;BME280;47353;51.614;5.530;2023-05-24T04:17:42;102307.72;;;6.08;100.00
59789;BME280;47353;51.614;5.530;2023-05-24T04:20:11;102302.44;;;6.06;100.00
59789;BME280;47353;51.614;5.530;2023-05-24T04:22:37;102311.13;;;6.10;100.00
59789;BME280;47353;51.614;5.530;2023-05-24T04:25:03;102298.44;;;6.09;100.00
59789;BME280;47353;51.614;5.530;2023-05-24T04:27:29;102307.09;;;6.12;100.00
59789;BME280;47353;51.614;5.530;2023-05-24T04:29:55;102306.47;;;6.17;100.00
59789;BME280;47353;51.614;5.530;2023-05-24T04:32:21;102304.13;;;6.20;100.00
59789;BME280;47353;51.614;5.530;2023-05-24T04:34:48;102310.91;;;6.24;100.00
59789;BME280;47353;51.614;5.530;2023-05-24T04:37:14;102309.00;;;6.25;100.00
59789;BME280;47353;51.614;5.530;2023-05-24T04:39:42;102310.06;;;6.30;100.00
59789;BME280;47353;51.614;5.530;2023-05-24T04:42:09;102311.75;;;6.38;100.00
59789;BME280;47353;51.614;5.530;2023-05-24T04:44:35;102308.13;;;6.44;100.00
59789;BME280;47353;51.614;5.530;2023-05-24T04:47:00;102311.47;;;6.72;100.00
59789;BME280;47353;51.614;5.530;2023-05-24T04:49:28;102305.44;;;6.95;100.00
59789;BME280;47353;51.614;5.530;2023-05-24T04:51:53;102298.47;;;6.99;100.00
59789;BME280;47353;51.614;5.530;2023-05-24T04:54:19;102315.34;;;7.09;100.00
59789;BME280;47353;51.614;5.530;2023-05-24T04:56:44;102319.38;;;7.06;100.00
59789;BME280;47353;51.614;5.530;2023-05-24T04:59:10;102317.06;;;7.03;100.00
59789;BME280;47353;51.614;5.530;2023-05-24T05:01:35;102327.88;;;7.05;100.00
59789;BME280;47353;51.614;5.530;2023-05-24T05:04:02;102319.19;;;7.01;100.00
59789;BME280;47353;51.614;5.530;2023-05-24T05:06:31;102318.75;;;7.04;100.00
59789;BME280;47353;51.614;5.530;2023-05-24T05:08:59;102309.84;;;7.09;100.00
59789;BME280;47353;51.614;5.530;2023-05-24T05:11:24;102319.13;;;7.14;100.00
59789;BME280;47353;51.614;5.530;2023-05-24T05:13:50;102322.06;;;7.19;100.00
59789;BME280;47353;51.614;5.530;2023-05-24T05:16:15;102316.34;;;7.21;100.00
59789;BME280;47353;51.614;5.530;2023-05-24T05:18:41;102322.69;;;7.28;100.00
59789;BME280;47353;51.614;5.530;2023-05-24T05:21:06;102329.84;;;7.35;100.00
59789;BME280;47353;51.614;5.530;2023-05-24T05:23:32;102329.59;;;7.43;100.00
59789;BME280;47353;51.614;5.530;2023-05-24T05:25:57;102336.75;;;7.51;100.00
59789;BME280;47353;51.614;5.530;2023-05-24T05:28:22;102331.81;;;7.59;100.00
59789;BME280;47353;51.614;5.530;2023-05-24T05:30:48;102323.69;;;7.71;100.00
59789;BME280;47353;51.614;5.530;2023-05-24T05:33:13;102329.13;;;7.77;100.00
59789;BME280;47353;51.614;5.530;2023-05-24T05:35:39;102333.34;;;7.86;100.00
59789;BME280;47353;51.614;5.530;2023-05-24T05:38:04;102328.78;;;7.98;100.00
59789;BME280;47353;51.614;5.530;2023-05-24T05:40:30;102332.97;;;8.07;100.00
59789;BME280;47353;51.614;5.530;2023-05-24T05:42:55;102331.16;;;8.19;100.00
59789;BME280;47353;51.614;5.530;2023-05-24T05:45:21;102320.06;;;8.32;100.00
59789;BME280;47353;51.614;5.530;2023-05-24T05:47:46;102323.75;;;8.44;100.00
59789;BME280;47353;51.614;5.530;2023-05-24T05:50:12;102328.66;;;8.61;100.00
59789;BME280;47353;51.614;5.530;2023-05-24T05:52:37;102335.75;;;8.75;100.00
59789;BME280;47353;51.614;5.530;2023-05-24T05:55:03;102333.69;;;8.88;100.00
59789;BME280;47353;51.614;5.530;2023-05-24T05:57:28;102328.00;;;9.01;100.00
59789;BME280;47353;51.614;5.530;2023-05-24T05:59:54;102335.13;;;9.09;100.00
59789;BME280;47353;51.614;5.530;2023-05-24T06:02:19;102331.75;;;9.25;100.00
59789;BME280;47353;51.614;5.530;2023-05-24T06:04:47;102337.56;;;9.35;100.00
59789;BME280;47353;51.614;5.530;2023-05-24T06:07:12;102339.06;;;9.49;100.00
59789;BME280;47353;51.614;5.530;2023-05-24T06:09:38;102335.53;;;9.60;100.00
59789;BME280;47353;51.614;5.530;2023-05-24T06:12:03;102348.94;;;9.74;100.00
59789;BME280;47353;51.614;5.530;2023-05-24T06:14:29;102337.66;;;9.87;100.00
59789;BME280;47353;51.614;5.530;2023-05-24T06:16:55;102350.81;;;10.03;100.00
59789;BME280;47353;51.614;5.530;2023-05-24T06:19:21;102348.25;;;10.20;100.00
59789;BME280;47353;51.614;5.530;2023-05-24T06:21:47;102353.19;;;10.30;99.07
59789;BME280;47353;51.614;5.530;2023-05-24T06:24:14;102355.00;;;10.47;98.66
59789;BME280;47353;51.614;5.530;2023-05-24T06:26:40;102359.72;;;10.58;97.47
59789;BME280;47353;51.614;5.530;2023-05-24T06:29:06;102358.88;;;10.69;96.01
59789;BME280;47353;51.614;5.530;2023-05-24T06:31:32;102360.06;;;10.85;94.93
59789;BME280;47353;51.614;5.530;2023-05-24T06:33:58;102365.63;;;10.96;94.08
59789;BME280;47353;51.614;5.530;2023-05-24T06:36:24;102362.44;;;11.16;94.15
59789;BME280;47353;51.614;5.530;2023-05-24T06:38:50;102362.41;;;11.27;92.71
59789;BME280;47353;51.614;5.530;2023-05-24T06:41:15;102363.81;;;11.41;91.26
59789;BME280;47353;51.614;5.530;2023-05-24T06:43:41;102356.31;;;11.65;91.10
59789;BME280;47353;51.614;5.530;2023-05-24T06:46:06;102362.84;;;11.87;90.79
59789;BME280;47353;51.614;5.530;2023-05-24T06:48:32;102350.75;;;12.10;88.63
59789;BME280;47353;51.614;5.530;2023-05-24T06:50:57;102360.97;;;12.37;86.58
59789;BME280;47353;51.614;5.530;2023-05-24T06:53:23;102363.31;;;12.62;85.91
59789;BME280;47353;51.614;5.530;2023-05-24T06:55:48;102362.81;;;12.81;84.71
59789;BME280;47353;51.614;5.530;2023-05-24T06:58:14;102363.19;;;13.06;83.58
59789;BME280;47353;51.614;5.530;2023-05-24T07:00:40;102357.00;;;13.21;81.46
59789;BME280;47353;51.614;5.530;2023-05-24T07:03:07;102363.00;;;13.78;82.80
59789;BME280;47353;51.614;5.530;2023-05-24T07:05:33;102360.38;;;14.19;81.47
59789;BME280;47353;51.614;5.530;2023-05-24T07:07:59;102368.66;;;14.41;73.95
59789;BME280;47353;51.614;5.530;2023-05-24T07:10:25;102367.22;;;14.70;73.87
59789;BME280;47353;51.614;5.530;2023-05-24T07:12:50;102373.06;;;15.05;74.92
59789;BME280;47353;51.614;5.530;2023-05-24T07:15:16;102372.16;;;15.41;74.19
59789;BME280;47353;51.614;5.530;2023-05-24T07:17:42;102369.97;;;15.48;70.68
59789;BME280;47353;51.614;5.530;2023-05-24T07:20:09;102380.38;;;15.68;67.62
59789;BME280;47353;51.614;5.530;2023-05-24T07:22:35;102362.28;;;15.90;68.78
59789;BME280;47353;51.614;5.530;2023-05-24T07:25:01;102375.16;;;15.96;64.06
59789;BME280;47353;51.614;5.530;2023-05-24T07:27:27;102385.53;;;16.16;63.41
59789;BME280;47353;51.614;5.530;2023-05-24T07:29:52;102378.25;;;16.15;63.27
59789;BME280;47353;51.614;5.530;2023-05-24T07:32:18;102378.63;;;16.58;65.33
59789;BME280;47353;51.614;5.530;2023-05-24T07:34:44;102380.56;;;16.93;62.95
59789;BME280;47353;51.614;5.530;2023-05-24T07:37:09;102386.38;;;17.17;59.48
59789;BME280;47353;51.614;5.530;2023-05-24T07:39:35;102388.53;;;17.55;58.17
59789;BME280;47353;51.614;5.530;2023-05-24T07:42:00;102384.72;;;17.89;58.17
59789;BME280;47353;51.614;5.530;2023-05-24T07:44:26;102390.13;;;17.76;57.37
59789;BME280;47353;51.614;5.530;2023-05-24T07:46:51;102388.09;;;17.86;56.22
59789;BME280;47353;51.614;5.530;2023-05-24T07:49:17;102387.53;;;17.84;57.36
59789;BME280;47353;51.614;5.530;2023-05-24T07:51:42;102379.88;;;18.05;56.22
59789;BME280;47353;51.614;5.530;2023-05-24T07:54:08;102385.47;;;18.49;53.98
59789;BME280;47353;51.614;5.530;2023-05-24T07:56:33;102380.84;;;18.96;53.78
59789;BME280;47353;51.614;5.530;2023-05-24T07:58:58;102395.94;;;19.00;53.32
59789;BME280;47353;51.614;5.530;2023-05-24T08:01:30;102396.53;;;18.69;52.82
59789;BME280;47353;51.614;5.530;2023-05-24T08:03:56;102394.50;;;18.36;51.25
59789;BME280;47353;51.614;5.530;2023-05-24T08:06:21;102391.91;;;18.10;54.31
59789;BME280;47353;51.614;5.530;2023-05-24T08:08:48;102391.75;;;17.82;54.14
59789;BME280;47353;51.614;5.530;2023-05-24T08:11:13;102389.25;;;17.80;52.34
59789;BME280;47353;51.614;5.530;2023-05-24T08:13:39;102383.84;;;18.43;50.16
59789;BME280;47353;51.614;5.530;2023-05-24T08:16:04;102382.13;;;18.47;49.24
59789;BME280;47353;51.614;5.530;2023-05-24T08:18:30;102383.44;;;18.15;51.97
59789;BME280;47353;51.614;5.530;2023-05-24T08:20:55;102382.47;;;17.96;52.63
59789;BME280;47353;51.614;5.530;2023-05-24T08:23:21;102381.88;;;18.77;49.78
59789;BME280;47353;51.614;5.530;2023-05-24T08:25:46;102374.50;;;19.09;47.84
59789;BME280;47353;51.614;5.530;2023-05-24T08:28:12;102389.38;;;19.62;46.72
59789;BME280;47353;51.614;5.530;2023-05-24T08:30:38;102382.00;;;19.47;45.19
59789;BME280;47353;51.614;5.530;2023-05-24T08:33:03;102378.38;;;18.90;45.90
59789;BME280;47353;51.614;5.530;2023-05-24T08:35:29;102382.28;;;18.60;46.27
59789;BME280;47353;51.614;5.530;2023-05-24T08:37:54;102373.69;;;18.52;47.22
59789;BME280;47353;51.614;5.530;2023-05-24T08:40:20;102379.09;;;19.00;46.74
59789;BME280;47353;51.614;5.530;2023-05-24T08:42:48;102368.22;;;20.94;44.39
59789;BME280;47353;51.614;5.530;2023-05-24T08:45:15;102368.91;;;22.35;40.31
59789;BME280;47353;51.614;5.530;2023-05-24T08:47:42;102368.38;;;22.11;38.75
59789;BME280;47353;51.614;5.530;2023-05-24T08:50:08;102370.09;;;23.00;37.69
59789;BME280;47353;51.614;5.530;2023-05-24T08:52:34;102370.72;;;24.32;35.58
59789;BME280;47353;51.614;5.530;2023-05-24T08:55:01;102363.25;;;25.33;33.79
59789;BME280;47353;51.614;5.530;2023-05-24T08:57:31;102368.22;;;26.24;30.58
59789;BME280;47353;51.614;5.530;2023-05-24T08:59:57;102367.31;;;25.82;31.54
59789;BME280;47353;51.614;5.530;2023-05-24T09:02:23;102364.75;;;25.22;33.36
59789;BME280;47353;51.614;5.530;2023-05-24T09:04:49;102361.06;;;26.26;33.25
59789;BME280;47353;51.614;5.530;2023-05-24T09:07:18;102362.78;;;27.37;28.92
59789;BME280;47353;51.614;5.530;2023-05-24T09:09:56;102349.16;;;28.15;28.64
59789;BME280;47353;51.614;5.530;2023-05-24T09:12:22;102352.72;;;28.79;26.56
59789;BME280;47353;51.614;5.530;2023-05-24T09:14:48;102355.31;;;29.43;26.33
59789;BME280;47353;51.614;5.530;2023-05-24T09:17:14;102352.53;;;29.62;26.56
59789;BME280;47353;51.614;5.530;2023-05-24T09:19:46;102358.22;;;29.15;27.68
59789;BME280;47353;51.614;5.530;2023-05-24T09:22:12;102356.63;;;29.02;26.33
59789;BME280;47353;51.614;5.530;2023-05-24T09:24:42;102358.66;;;28.07;27.26
59789;BME280;47353;51.614;5.530;2023-05-24T09:27:07;102355.28;;;26.55;28.93
59789;BME280;47353;51.614;5.530;2023-05-24T09:29:36;102357.00;;;25.02;30.62
59789;BME280;47353;51.614;5.530;2023-05-24T09:32:03;102354.34;;;24.97;29.77
59789;BME280;47353;51.614;5.530;2023-05-24T09:34:41;102345.16;;;25.00;31.76
59789;BME280;47353;51.614;5.530;2023-05-24T09:37:14;102343.50;;;25.45;31.09
59789;BME280;47353;51.614;5.530;2023-05-24T09:39:41;102340.22;;;27.20;32.21
59789;BME280;47353;51.614;5.530;2023-05-24T09:42:07;102347.63;;;27.93;26.32
59789;BME280;47353;51.614;5.530;2023-05-24T09:44:32;102347.25;;;28.07;26.40
59789;BME280;47353;51.614;5.530;2023-05-24T09:47:02;102344.72;;;29.43;25.30
59789;BME280;47353;51.614;5.530;2023-05-24T09:49:31;102355.63;;;28.27;26.33
59789;BME280;47353;51.614;5.530;2023-05-24T09:51:57;102359.59;;;26.94;27.67
59789;BME280;47353;51.614;5.530;2023-05-24T09:54:24;102345.97;;;27.80;26.74
59789;BME280;47353;51.614;5.530;2023-05-24T09:56:52;102346.97;;;29.65;25.15
59789;BME280;47353;51.614;5.530;2023-05-24T09:59:18;102330.31;;;30.97;23.38
59789;BME280;47353;51.614;5.530;2023-05-24T10:01:44;102335.78;;;31.47;22.22
59789;BME280;47353;51.614;5.530;2023-05-24T10:04:10;102330.34;;;30.21;22.29
59789;BME280;47353;51.614;5.530;2023-05-24T10:06:36;102341.53;;;31.28;21.84
59789;BME280;47353;51.614;5.530;2023-05-24T10:09:03;102335.06;;;32.32;20.42
59789;BME280;47353;51.614;5.530;2023-05-24T10:11:31;102336.31;;;33.37;20.24
59789;BME280;47353;51.614;5.530;2023-05-24T10:13:58;102332.28;;;33.02;19.36
59789;BME280;47353;51.614;5.530;2023-05-24T10:16:24;102335.03;;;30.86;19.95
59789;BME280;47353;51.614;5.530;2023-05-24T10:18:49;102330.59;;;29.03;23.43
59789;BME280;47353;51.614;5.530;2023-05-24T10:21:16;102331.84;;;27.59;25.23
59789;BME280;47353;51.614;5.530;2023-05-24T10:23:44;102327.13;;;26.30;27.94
59789;BME280;47353;51.614;5.530;2023-05-24T10:26:15;102327.84;;;25.48;27.99
59789;BME280;47353;51.614;5.530;2023-05-24T10:28:48;102325.53;;;24.95;30.14
59789;BME280;47353;51.614;5.530;2023-05-24T10:31:22;102327.28;;;24.19;31.02
59789;BME280;47353;51.614;5.530;2023-05-24T10:33:49;102327.69;;;23.70;30.91
59789;BME280;47353;51.614;5.530;2023-05-24T10:36:16;102325.22;;;23.30;31.97
59789;BME280;47353;51.614;5.530;2023-05-24T10:38:45;102330.25;;;23.11;32.92
59789;BME280;47353;51.614;5.530;2023-05-24T10:41:11;102321.59;;;22.76;33.45
59789;BME280;47353;51.614;5.530;2023-05-24T10:43:37;102318.91;;;22.49;33.22
59789;BME280;47353;51.614;5.530;2023-05-24T10:46:06;102318.91;;;22.49;32.90
59789;BME280;47353;51.614;5.530;2023-05-24T10:48:39;102321.06;;;22.30;33.62
59789;BME280;47353;51.614;5.530;2023-05-24T10:51:33;102328.31;;;22.23;33.65
59789;BME280;47353;51.614;5.530;2023-05-24T10:54:17;102319.63;;;21.97;34.83
59789;BME280;47353;51.614;5.530;2023-05-24T10:56:45;102320.31;;;21.54;34.84
59789;BME280;47353;51.614;5.530;2023-05-24T10:59:32;102323.16;;;21.26;36.50
59789;BME280;47353;51.614;5.530;2023-05-24T11:02:02;102317.94;;;20.74;37.01
59789;BME280;47353;51.614;5.530;2023-05-24T11:04:32;102323.94;;;20.54;37.33
59789;BME280;47353;51.614;5.530;2023-05-24T11:07:02;102322.44;;;20.43;37.09
59789;BME280;47353;51.614;5.530;2023-05-24T11:09:29;102328.84;;;20.30;37.38
59789;BME280;47353;51.614;5.530;2023-05-24T11:12:01;102319.97;;;20.23;37.54
59789;BME280;47353;51.614;5.530;2023-05-24T11:14:29;102322.16;;;20.08;39.05
59789;BME280;47353;51.614;5.530;2023-05-24T11:16:56;102324.22;;;20.21;39.29
59789;BME280;47353;51.614;5.530;2023-05-24T11:19:33;102325.06;;;20.21;38.02
59789;BME280;47353;51.614;5.530;2023-05-24T11:22:01;102326.28;;;20.15;40.50
59789;BME280;47353;51.614;5.530;2023-05-24T11:24:27;102324.75;;;20.23;38.88
59789;BME280;47353;51.614;5.530;2023-05-24T11:26:53;102328.00;;;20.30;39.32
59789;BME280;47353;51.614;5.530;2023-05-24T11:29:21;102323.84;;;20.59;39.53
59789;BME280;47353;51.614;5.530;2023-05-24T11:31:51;102316.03;;;21.42;38.04
59789;BME280;47353;51.614;5.530;2023-05-24T11:34:18;102307.66;;;22.14;34.59
59789;BME280;47353;51.614;5.530;2023-05-24T11:36:45;102321.59;;;22.76;35.73
59789;BME280;47353;51.614;5.530;2023-05-24T11:39:12;102315.72;;;22.95;32.97
59789;BME280;47353;51.614;5.530;2023-05-24T11:41:39;102315.53;;;23.70;34.72
59789;BME280;47353;51.614;5.530;2023-05-24T11:44:06;102320.28;;;24.08;32.55
59789;BME280;47353;51.614;5.530;2023-05-24T11:46:33;102311.06;;;24.63;31.36
59789;BME280;47353;51.614;5.530;2023-05-24T11:48:59;102313.28;;;25.12;30.85
59789;BME280;47353;51.614;5.530;2023-05-24T11:51:34;102310.41;;;25.20;31.35
59789;BME280;47353;51.614;5.530;2023-05-24T11:54:00;102316.81;;;25.46;29.86
59789;BME280;47353;51.614;5.530;2023-05-24T11:56:29;102312.22;;;25.25;29.75
59789;BME280;47353;51.614;5.530;2023-05-24T11:59:15;102305.88;;;25.36;30.53
59789;BME280;47353;51.614;5.530;2023-05-24T12:01:41;102312.56;;;24.77;30.15
59789;BME280;47353;51.614;5.530;2023-05-24T12:04:07;102321.28;;;24.38;31.86
59789;BME280;47353;51.614;5.530;2023-05-24T12:06:40;102308.47;;;24.15;31.06
59789;BME280;47353;51.614;5.530;2023-05-24T12:09:08;102311.06;;;23.94;32.06
59789;BME280;47353;51.614;5.530;2023-05-24T12:11:39;102301.94;;;23.97;31.79
59789;BME280;47353;51.614;5.530;2023-05-24T12:14:06;102311.09;;;24.03;33.03
59789;BME280;47353;51.614;5.530;2023-05-24T12:16:32;102307.28;;;23.34;32.80
59789;BME280;47353;51.614;5.530;2023-05-24T12:18:58;102312.31;;;22.76;35.24
59789;BME280;47353;51.614;5.530;2023-05-24T12:21:24;102313.56;;;22.04;36.79
59789;BME280;47353;51.614;5.530;2023-05-24T12:23:50;102313.19;;;21.70;36.03
59789;BME280;47353;51.614;5.530;2023-05-24T12:26:17;102319.41;;;21.31;36.44
59789;BME280;47353;51.614;5.530;2023-05-24T12:28:44;102304.59;;;21.39;36.91
59789;BME280;47353;51.614;5.530;2023-05-24T12:31:12;102308.75;;;21.28;37.54
59789;BME280;47353;51.614;5.530;2023-05-24T12:33:38;102298.75;;;21.22;38.09
59789;BME280;47353;51.614;5.530;2023-05-24T12:36:04;102311.97;;;21.35;36.66
59789;BME280;47353;51.614;5.530;2023-05-24T12:38:30;102300.28;;;21.55;36.81
59789;BME280;47353;51.614;5.530;2023-05-24T12:40:56;102302.03;;;21.78;36.06
59789;BME280;47353;51.614;5.530;2023-05-24T12:43:22;102293.19;;;22.07;35.72
59789;BME280;47353;51.614;5.530;2023-05-24T12:45:48;102298.25;;;22.18;35.97
59789;BME280;47353;51.614;5.530;2023-05-24T12:48:13;102295.31;;;22.67;34.58
59789;BME280;47353;51.614;5.530;2023-05-24T12:50:39;102299.19;;;23.11;34.91
59789;BME280;47353;51.614;5.530;2023-05-24T12:53:04;102296.44;;;23.28;35.63
59789;BME280;47353;51.614;5.530;2023-05-24T12:55:30;102304.00;;;23.41;33.76
59789;BME280;47353;51.614;5.530;2023-05-24T12:57:57;102299.72;;;23.60;32.96